createdAt,value
2019-05-02T00:00:57.656Z,55.50
2019-05-02T00:02:07.718Z,55.60
2019-05-02T00:03:15.486Z,55.50
2019-05-02T00:04:22.786Z,55.50
2019-05-02T00:05:32.126Z,55.60
2019-05-02T00:06:42.869Z,56.20
2019-05-02T00:07:48.829Z,55.40
2019-05-02T00:08:56.716Z,55.50
2019-05-02T00:10:05.800Z,56.00
2019-05-02T00:11:14.420Z,55.30
2019-05-02T00:12:23.433Z,55.50
2019-05-02T00:13:32.353Z,55.50
2019-05-02T00:14:40.047Z,55.50
2019-05-02T00:15:48.875Z,55.40
2019-05-02T00:16:57.181Z,55.50
2019-05-02T00:18:05.055Z,55.50
2019-05-02T00:19:14.092Z,55.60
2019-05-02T00:20:25.771Z,55.60
2019-05-02T00:21:32.867Z,55.70
2019-05-02T00:22:40.165Z,55.80
2019-05-02T00:23:47.421Z,55.70
2019-05-02T00:24:55.038Z,55.70
2019-05-02T00:26:02.278Z,55.70
2019-05-02T00:27:09.758Z,55.80
2019-05-02T00:28:17.255Z,55.80
2019-05-02T00:29:25.050Z,55.90
2019-05-02T00:30:34.576Z,56.00
2019-05-02T00:31:41.850Z,55.90
2019-05-02T00:32:53.255Z,55.90
2019-05-02T00:33:59.503Z,55.90
2019-05-02T00:35:07.044Z,56.00
2019-05-02T00:36:14.291Z,56.10
2019-05-02T00:37:24.615Z,56.10
2019-05-02T00:38:33.438Z,56.30
2019-05-02T00:39:39.473Z,56.30
2019-05-02T00:40:46.699Z,56.40
2019-05-02T00:41:53.992Z,56.50
2019-05-02T00:43:01.331Z,56.70
2019-05-02T00:44:11.118Z,57.40
2019-05-02T00:45:24.080Z,57.30
2019-05-02T00:46:30.364Z,57.50
2019-05-02T00:47:47.989Z,57.50
2019-05-02T00:49:00.154Z,57.60
2019-05-02T00:50:11.339Z,57.70
2019-05-02T00:51:22.016Z,57.60
2019-05-02T00:52:26.983Z,57.60
2019-05-02T00:53:34.222Z,57.70
2019-05-02T00:54:41.434Z,57.90
2019-05-02T00:55:48.673Z,58.10
2019-05-02T00:56:55.895Z,58.10
2019-05-02T00:58:03.121Z,58.20
2019-05-02T00:59:10.361Z,59.00
2019-05-02T01:00:19.670Z,58.40
2019-05-02T01:01:45.965Z,58.50
2019-05-02T01:03:00.308Z,58.50
2019-05-02T01:04:16.125Z,58.40
2019-05-02T01:05:24.519Z,58.50
2019-05-02T01:06:31.779Z,58.60
2019-05-02T01:07:39.015Z,58.70
2019-05-02T01:08:46.257Z,58.60
2019-05-02T01:09:53.511Z,58.70
2019-05-02T01:11:00.738Z,58.80
2019-05-02T01:12:08.651Z,58.70
2019-05-02T01:13:19.176Z,58.70
2019-05-02T01:14:27.289Z,58.40
2019-05-02T01:15:39.195Z,58.20
2019-05-02T01:16:43.986Z,58.10
2019-05-02T01:17:51.189Z,58.10
2019-05-02T01:18:58.445Z,58.20
2019-05-02T01:20:06.574Z,58.10
2019-05-02T01:21:13.858Z,57.50
2019-05-02T01:22:21.099Z,57.00
2019-05-02T01:23:29.536Z,56.50
2019-05-02T01:24:39.892Z,56.30
2019-05-02T01:25:47.397Z,56.40
2019-05-02T01:27:04.491Z,57.00
2019-05-02T01:28:37.731Z,56.70
2019-05-02T01:30:05.953Z,56.50
2019-05-02T01:31:24.559Z,56.40
2019-05-02T01:32:48.885Z,56.30
2019-05-02T01:34:18.143Z,56.30
2019-05-02T01:35:31.598Z,56.30
2019-05-02T01:36:47.138Z,56.20
2019-05-02T01:38:11.453Z,56.20
2019-05-02T01:39:18.691Z,55.70
2019-05-02T01:40:25.920Z,56.30
2019-05-02T01:41:33.143Z,56.60
2019-05-02T01:42:44.375Z,56.70
2019-05-02T01:43:49.348Z,56.80
2019-05-02T01:44:56.624Z,56.80
2019-05-02T01:46:03.862Z,56.90
2019-05-02T01:47:11.086Z,57.10
2019-05-02T01:48:18.326Z,57.10
2019-05-02T01:49:25.556Z,57.00
2019-05-02T01:50:33.529Z,57.10
2019-05-02T01:51:47.826Z,57.10
2019-05-02T01:52:53.708Z,57.20
2019-05-02T01:53:59.751Z,57.50
2019-05-02T01:55:07.325Z,57.80
2019-05-02T01:56:14.575Z,58.00
2019-05-02T01:57:21.802Z,58.80
2019-05-02T01:58:29.181Z,58.30
2019-05-02T01:59:36.424Z,58.50
2019-05-02T02:00:44.817Z,58.50
2019-05-02T02:01:53.222Z,58.50
2019-05-02T02:03:04.269Z,58.60
2019-05-02T02:04:10.630Z,58.50
2019-05-02T02:05:17.887Z,58.60
2019-05-02T02:06:25.116Z,58.60
2019-05-02T02:07:32.373Z,58.50
2019-05-02T02:08:39.653Z,58.60
2019-05-02T02:09:46.957Z,58.50
2019-05-02T02:10:56.552Z,58.40
2019-05-02T02:12:05.022Z,58.40
2019-05-02T02:13:12.085Z,58.30
2019-05-02T02:14:19.327Z,58.20
2019-05-02T02:15:29.140Z,58.20
2019-05-02T02:16:39.344Z,58.20
2019-05-02T02:17:46.802Z,58.10
2019-05-02T02:19:04.097Z,58.00
2019-05-02T02:20:14.094Z,58.00
2019-05-02T02:21:57.438Z,58.00
2019-05-02T02:23:14.178Z,58.50
2019-05-02T02:24:33.023Z,57.80
2019-05-02T02:25:53.182Z,57.80
2019-05-02T02:27:00.394Z,57.80
2019-05-02T02:28:07.651Z,57.80
2019-05-02T02:29:14.902Z,57.80
2019-05-02T02:30:24.324Z,57.90
2019-05-02T02:31:32.130Z,58.00
2019-05-02T02:32:39.374Z,58.30
2019-05-02T02:33:47.908Z,58.50
2019-05-02T02:34:55.537Z,58.50
2019-05-02T02:36:03.843Z,58.50
2019-05-02T02:37:13.023Z,58.50
2019-05-02T02:38:20.002Z,58.60
2019-05-02T02:39:27.210Z,58.70
2019-05-02T02:40:35.697Z,58.80
2019-05-02T02:41:45.313Z,58.80
2019-05-02T02:42:52.192Z,58.90
2019-05-02T02:44:21.931Z,58.90
2019-05-02T02:45:51.723Z,58.90
2019-05-02T02:46:59.938Z,58.80
2019-05-02T02:48:07.195Z,58.80
2019-05-02T02:49:21.380Z,58.80
2019-05-02T02:50:23.322Z,59.00
2019-05-02T02:51:30.561Z,59.10
2019-05-02T02:52:44.663Z,59.10
2019-05-02T02:53:46.742Z,59.10
2019-05-02T02:54:53.951Z,59.10
2019-05-02T02:56:03.890Z,59.20
2019-05-02T02:57:20.082Z,59.20
2019-05-02T02:58:20.335Z,59.10
2019-05-02T02:59:28.275Z,59.20
2019-05-02T03:00:35.585Z,59.20
2019-05-02T03:01:42.827Z,59.20
2019-05-02T03:02:50.200Z,59.20
2019-05-02T03:04:01.884Z,59.20
2019-05-02T03:05:07.041Z,59.40
2019-05-02T03:06:14.262Z,59.40
2019-05-02T03:07:25.778Z,59.40
2019-05-02T03:08:30.444Z,59.40
2019-05-02T03:09:37.683Z,59.30
2019-05-02T03:10:46.551Z,59.40
2019-05-02T03:12:24.865Z,59.30
2019-05-02T03:13:52.766Z,59.30
2019-05-02T03:14:54.154Z,59.20
2019-05-02T03:16:06.809Z,59.30
2019-05-02T03:17:11.059Z,59.20
2019-05-02T03:18:19.346Z,59.30
2019-05-02T03:19:26.582Z,59.30
2019-05-02T03:20:40.001Z,59.40
2019-05-02T03:21:54.584Z,59.50
2019-05-02T03:23:02.425Z,59.40
2019-05-02T03:24:09.649Z,59.50
2019-05-02T03:25:18.106Z,59.60
2019-05-02T03:26:26.544Z,59.60
2019-05-02T03:27:37.173Z,59.70
2019-05-02T03:28:43.308Z,59.80
2019-05-02T03:29:50.953Z,59.80
2019-05-02T03:30:58.435Z,59.80
2019-05-02T03:32:22.109Z,59.70
2019-05-02T03:33:14.695Z,59.70
2019-05-02T03:34:21.894Z,59.80
2019-05-02T03:35:41.873Z,59.80
2019-05-02T03:36:38.087Z,59.90
2019-05-02T03:37:51.320Z,59.90
2019-05-02T03:38:54.657Z,59.90
2019-05-02T03:40:01.877Z,59.90
2019-05-02T03:41:13.588Z,59.90
2019-05-02T03:42:20.093Z,59.80
2019-05-02T03:43:27.948Z,59.80
2019-05-02T03:44:35.193Z,59.90
2019-05-02T03:45:43.255Z,59.90
2019-05-02T03:46:54.294Z,59.80
2019-05-02T03:47:59.466Z,59.80
2019-05-02T03:49:09.420Z,59.80
2019-05-02T03:50:15.757Z,59.80
2019-05-02T03:51:25.264Z,59.80
2019-05-02T03:52:36.638Z,60.00
2019-05-02T03:53:40.962Z,59.80
2019-05-02T03:54:50.571Z,59.90
2019-05-02T03:55:57.392Z,59.90
2019-05-02T03:57:04.988Z,59.90
2019-05-02T03:58:14.371Z,59.90
2019-05-02T03:59:21.265Z,60.00
2019-05-02T04:00:28.486Z,59.90
2019-05-02T04:01:41.210Z,60.10
2019-05-02T04:02:59.183Z,59.80
2019-05-02T04:03:57.439Z,60.20
2019-05-02T04:05:05.714Z,60.30
2019-05-02T04:06:20.734Z,60.20
2019-05-02T04:07:22.641Z,60.30
2019-05-02T04:08:31.173Z,60.40
2019-05-02T04:09:42.094Z,60.30
2019-05-02T04:11:26.150Z,60.30
2019-05-02T04:12:34.811Z,60.30
2019-05-02T04:13:42.605Z,60.10
2019-05-02T04:14:55.502Z,60.50
2019-05-02T04:15:59.174Z,60.30
2019-05-02T04:17:06.551Z,60.30
2019-05-02T04:18:15.386Z,60.30
2019-05-02T04:19:28.511Z,60.30
2019-05-02T04:20:32.140Z,60.30
2019-05-02T04:21:39.757Z,60.30
2019-05-02T04:22:48.865Z,60.30
2019-05-02T04:24:06.633Z,60.40
2019-05-02T04:25:06.660Z,60.40
2019-05-02T04:26:16.762Z,60.40
2019-05-02T04:27:27.741Z,60.50
2019-05-02T04:28:38.119Z,60.40
2019-05-02T04:29:45.341Z,60.40
2019-05-02T04:30:53.918Z,60.40
2019-05-02T04:32:04.532Z,60.40
2019-05-02T04:33:11.192Z,60.40
2019-05-02T04:34:18.540Z,60.40
2019-05-02T04:35:28.841Z,60.60
2019-05-02T04:36:34.734Z,60.60
2019-05-02T04:37:43.727Z,61.10
2019-05-02T04:38:52.570Z,61.00
2019-05-02T04:40:03.126Z,61.00
2019-05-02T04:41:09.514Z,61.00
2019-05-02T04:42:22.085Z,61.10
2019-05-02T04:43:28.589Z,61.10
2019-05-02T04:44:43.669Z,61.30
2019-05-02T04:45:53.139Z,61.30
2019-05-02T04:46:52.426Z,61.30
2019-05-02T04:48:03.904Z,61.20
2019-05-02T04:49:09.305Z,61.30
2019-05-02T04:50:18.515Z,61.30
2019-05-02T04:51:28.627Z,61.30
2019-05-02T04:52:38.453Z,61.30
2019-05-02T04:53:45.234Z,61.30
2019-05-02T04:54:52.414Z,61.20
2019-05-02T04:56:04.370Z,61.30
2019-05-02T04:57:08.823Z,61.40
2019-05-02T04:58:24.348Z,61.30
2019-05-02T04:59:25.161Z,61.40
2019-05-02T05:00:32.387Z,61.30
2019-05-02T05:01:49.156Z,61.30
2019-05-02T05:02:52.794Z,61.30
2019-05-02T05:04:02.881Z,61.20
2019-05-02T05:05:08.174Z,61.20
2019-05-02T05:06:15.416Z,61.20
2019-05-02T05:07:22.640Z,61.30
2019-05-02T05:08:31.851Z,61.20
2019-05-02T05:09:40.619Z,61.20
2019-05-02T05:10:47.999Z,61.10
2019-05-02T05:12:00.890Z,61.10
2019-05-02T05:13:04.218Z,61.30
2019-05-02T05:14:11.426Z,61.30
2019-05-02T05:15:33.852Z,61.10
2019-05-02T05:16:28.602Z,61.20
2019-05-02T05:17:37.507Z,61.10
2019-05-02T05:18:49.313Z,61.20
2019-05-02T05:19:54.862Z,61.30
2019-05-02T05:21:02.088Z,61.30
2019-05-02T05:22:12.075Z,61.40
2019-05-02T05:23:28.752Z,61.50
2019-05-02T05:24:42.473Z,61.40
2019-05-02T05:26:00.840Z,61.40
2019-05-02T05:27:04.577Z,61.40
2019-05-02T05:28:11.788Z,61.40
2019-05-02T05:29:23.102Z,61.60
2019-05-02T05:30:28.286Z,61.30
2019-05-02T05:31:35.659Z,61.10
2019-05-02T05:32:42.867Z,61.00
2019-05-02T05:33:50.112Z,61.10
2019-05-02T05:34:57.934Z,61.00
2019-05-02T05:36:05.224Z,61.00
2019-05-02T05:37:13.549Z,61.00
2019-05-02T05:38:22.879Z,61.00
2019-05-02T05:39:29.884Z,61.20
2019-05-02T05:40:38.194Z,61.10
2019-05-02T05:41:50.510Z,61.00
2019-05-02T05:42:54.428Z,60.90
2019-05-02T05:44:01.672Z,61.00
2019-05-02T05:45:13.657Z,61.20
2019-05-02T05:46:18.059Z,61.20
2019-05-02T05:47:25.281Z,61.10
2019-05-02T05:48:37.159Z,61.10
2019-05-02T05:49:41.434Z,61.20
2019-05-02T05:50:48.657Z,61.10
2019-05-02T05:52:02.581Z,61.40
2019-05-02T05:53:04.846Z,61.60
2019-05-02T05:54:12.073Z,61.60
2019-05-02T05:55:24.044Z,61.90
2019-05-02T05:56:32.603Z,61.90
2019-05-02T05:57:38.479Z,61.80
2019-05-02T05:58:50.844Z,61.80
2019-05-02T05:59:58.251Z,61.80
2019-05-02T06:01:07.874Z,61.90
2019-05-02T06:02:14.764Z,61.90
2019-05-02T06:03:22.123Z,61.90
2019-05-02T06:04:32.768Z,62.20
2019-05-02T06:05:40.983Z,62.70
2019-05-02T06:06:48.013Z,62.90
2019-05-02T06:07:57.407Z,62.90
2019-05-02T06:09:07.593Z,62.80
2019-05-02T06:10:14.930Z,63.00
2019-05-02T06:11:22.157Z,62.40
2019-05-02T06:12:30.387Z,62.10
2019-05-02T06:13:42.661Z,61.50
2019-05-02T06:14:47.242Z,61.50
2019-05-02T06:16:02.020Z,61.70
2019-05-02T06:17:03.358Z,61.70
2019-05-02T06:18:10.583Z,61.60
2019-05-02T06:19:19.061Z,61.60
2019-05-02T06:20:30.610Z,61.60
2019-05-02T06:21:35.457Z,61.50
2019-05-02T06:22:43.778Z,61.70
2019-05-02T06:23:51.003Z,61.50
2019-05-02T06:24:58.230Z,61.30
2019-05-02T06:26:07.817Z,61.40
2019-05-02T06:27:14.423Z,61.50
2019-05-02T06:28:21.649Z,61.10
2019-05-02T06:29:29.955Z,60.90
2019-05-02T06:30:37.183Z,60.70
2019-05-02T06:31:44.507Z,60.50
2019-05-02T06:32:54.913Z,60.60
2019-05-02T06:34:02.157Z,61.00
2019-05-02T06:35:10.767Z,61.10
2019-05-02T06:36:18.088Z,60.50
2019-05-02T06:37:26.364Z,60.20
2019-05-02T06:38:37.417Z,60.10
2019-05-02T06:39:42.480Z,59.80
2019-05-02T06:40:49.704Z,59.60
2019-05-02T06:41:58.551Z,59.20
2019-05-02T06:43:09.669Z,59.10
2019-05-02T06:44:18.425Z,59.20
2019-05-02T06:45:24.745Z,59.00
2019-05-02T06:46:31.970Z,58.70
2019-05-02T06:47:41.657Z,59.00
2019-05-02T06:48:52.311Z,59.00
2019-05-02T06:50:01.230Z,58.80
2019-05-02T06:51:11.017Z,58.70
2019-05-02T06:52:16.327Z,58.50
2019-05-02T06:53:23.536Z,58.40
2019-05-02T06:54:30.794Z,58.10
2019-05-02T06:55:38.752Z,57.90
2019-05-02T06:56:47.972Z,57.80
2019-05-02T06:57:56.892Z,57.90
2019-05-02T06:59:04.482Z,57.60
2019-05-02T07:00:13.300Z,57.30
2019-05-02T07:01:21.557Z,57.40
2019-05-02T07:02:33.565Z,57.30
2019-05-02T07:03:41.340Z,57.20
2019-05-02T07:04:47.436Z,57.20
2019-05-02T07:05:58.808Z,56.80
2019-05-02T07:07:03.941Z,56.60
2019-05-02T07:08:13.635Z,56.50
2019-05-02T07:09:20.534Z,56.50
2019-05-02T07:10:33.683Z,56.50
2019-05-02T07:11:38.889Z,56.30
2019-05-02T07:12:51.135Z,56.00
2019-05-02T07:13:56.166Z,56.00
2019-05-02T07:15:08.105Z,55.90
2019-05-02T07:16:37.694Z,55.70
2019-05-02T07:17:50.775Z,56.10
2019-05-02T07:19:16.576Z,55.50
2019-05-02T07:20:24.192Z,55.70
2019-05-02T07:21:31.448Z,55.50
2019-05-02T07:22:40.780Z,55.30
2019-05-02T07:23:53.649Z,55.10
2019-05-02T07:25:01.847Z,55.10
2019-05-02T07:26:06.956Z,55.30
2019-05-02T07:27:14.177Z,55.20
2019-05-02T07:28:23.807Z,55.50
2019-05-02T07:29:30.296Z,55.20
2019-05-02T07:30:38.202Z,55.10
2019-05-02T07:31:47.792Z,54.50
2019-05-02T07:32:56.374Z,54.60
2019-05-02T07:34:03.309Z,54.30
2019-05-02T07:35:10.627Z,54.30
2019-05-02T07:36:18.466Z,54.30
2019-05-02T07:37:25.693Z,54.20
2019-05-02T07:38:32.994Z,54.00
2019-05-02T07:39:41.040Z,54.00
2019-05-02T07:40:53.107Z,54.20
2019-05-02T07:42:00.643Z,54.20
2019-05-02T07:43:07.044Z,54.10
2019-05-02T07:44:14.435Z,54.10
2019-05-02T07:45:22.039Z,53.90
2019-05-02T07:46:29.362Z,53.80
2019-05-02T07:47:40.464Z,53.60
2019-05-02T07:48:48.959Z,53.30
2019-05-02T07:49:54.406Z,53.10
2019-05-02T07:51:02.758Z,53.30
2019-05-02T07:52:10.946Z,53.20
2019-05-02T07:53:18.170Z,53.20
2019-05-02T07:54:26.841Z,53.20
2019-05-02T07:55:35.438Z,53.30
2019-05-02T07:56:43.090Z,53.30
2019-05-02T07:57:50.303Z,53.30
2019-05-02T07:58:57.543Z,53.40
2019-05-02T08:00:06.869Z,53.20
2019-05-02T08:01:15.300Z,53.00
2019-05-02T08:02:25.012Z,53.00
2019-05-02T08:03:33.493Z,52.90
2019-05-02T08:04:44.142Z,53.10
2019-05-02T08:05:54.359Z,53.00
2019-05-02T08:07:01.191Z,52.90
2019-05-02T08:08:09.483Z,53.00
2019-05-02T08:09:16.709Z,53.00
2019-05-02T08:10:24.360Z,52.90
2019-05-02T08:11:32.253Z,53.00
2019-05-02T08:12:40.549Z,52.60
2019-05-02T08:13:49.514Z,52.40
2019-05-02T08:14:56.775Z,52.40
2019-05-02T08:16:04.042Z,52.50
2019-05-02T08:17:17.276Z,52.30
2019-05-02T08:18:20.145Z,52.30
2019-05-02T08:19:27.356Z,52.10
2019-05-02T08:20:34.582Z,52.20
2019-05-02T08:21:41.822Z,52.20
2019-05-02T08:22:50.356Z,52.10
2019-05-02T08:24:02.264Z,51.80
2019-05-02T08:25:10.540Z,51.90
2019-05-02T08:26:21.484Z,51.90
2019-05-02T08:27:40.501Z,52.00
2019-05-02T08:28:55.256Z,52.00
2019-05-02T08:30:04.299Z,52.10
2019-05-02T08:31:13.655Z,52.00
2019-05-02T08:32:20.478Z,52.00
2019-05-02T08:33:29.405Z,51.50
2019-05-02T08:34:36.673Z,51.40
2019-05-02T08:35:43.896Z,51.50
2019-05-02T08:36:51.126Z,51.40
2019-05-02T08:37:58.326Z,51.50
2019-05-02T08:39:07.752Z,51.00
2019-05-02T08:40:15.551Z,51.10
2019-05-02T08:41:22.773Z,51.10
2019-05-02T08:42:32.689Z,51.20
2019-05-02T08:43:40.104Z,50.90
2019-05-02T08:44:51.321Z,51.20
2019-05-02T08:45:57.256Z,51.30
2019-05-02T08:47:04.533Z,50.90
2019-05-02T08:48:11.757Z,50.60
2019-05-02T08:49:20.084Z,50.70
2019-05-02T08:50:31.927Z,50.10
2019-05-02T08:51:36.328Z,50.00
2019-05-02T08:52:44.239Z,50.30
2019-05-02T08:53:52.154Z,50.10
2019-05-02T08:55:04.495Z,50.00
2019-05-02T08:56:09.684Z,50.00
2019-05-02T08:57:16.925Z,49.90
2019-05-02T08:58:24.139Z,49.70
2019-05-02T08:59:31.369Z,49.70
2019-05-02T09:00:39.549Z,49.70
2019-05-02T09:01:49.341Z,49.50
2019-05-02T09:02:57.076Z,49.50
2019-05-02T09:04:05.086Z,50.10
2019-05-02T09:05:12.715Z,49.20
2019-05-02T09:06:22.467Z,49.10
2019-05-02T09:07:31.657Z,49.30
2019-05-02T09:08:37.783Z,49.50
2019-05-02T09:09:45.026Z,49.70
2019-05-02T09:10:52.251Z,49.70
2019-05-02T09:12:09.686Z,49.50
2019-05-02T09:13:09.360Z,49.70
2019-05-02T09:14:16.558Z,49.50
2019-05-02T09:15:23.781Z,49.30
2019-05-02T09:16:32.819Z,49.50
2019-05-02T09:17:46.521Z,49.50
2019-05-02T09:18:51.913Z,49.60
2019-05-02T09:20:02.202Z,49.60
2019-05-02T09:21:06.966Z,49.60
2019-05-02T09:22:16.781Z,49.40
2019-05-02T09:23:27.462Z,49.60
2019-05-02T09:24:32.603Z,49.30
2019-05-02T09:25:40.056Z,49.40
2019-05-02T09:26:47.280Z,49.40
2019-05-02T09:27:54.533Z,49.30
2019-05-02T09:29:05.377Z,49.40
2019-05-02T09:30:12.197Z,49.60
2019-05-02T09:31:19.422Z,49.70
2019-05-02T09:32:26.682Z,49.20
2019-05-02T09:33:36.852Z,49.30
2019-05-02T09:34:43.878Z,48.90
2019-05-02T09:35:51.613Z,49.20
2019-05-02T09:36:58.898Z,49.40
2019-05-02T09:38:06.125Z,49.00
2019-05-02T09:39:13.369Z,48.90
2019-05-02T09:40:22.163Z,49.00
2019-05-02T09:41:34.419Z,49.10
2019-05-02T09:42:38.567Z,48.90
2019-05-02T09:43:45.823Z,48.90
2019-05-02T09:44:56.797Z,48.70
2019-05-02T09:46:02.531Z,48.80
2019-05-02T09:47:12.901Z,49.20
2019-05-02T09:48:22.845Z,49.20
2019-05-02T09:49:29.054Z,49.30
2019-05-02T09:50:38.209Z,49.40
2019-05-02T09:51:45.633Z,49.20
2019-05-02T09:52:54.193Z,49.20
2019-05-02T09:54:05.044Z,49.30
2019-05-02T09:55:12.154Z,48.80
2019-05-02T09:56:19.546Z,48.60
2019-05-02T09:57:26.757Z,48.70
2019-05-02T09:58:33.997Z,48.20
2019-05-02T09:59:43.466Z,48.30
2019-05-02T10:01:14.915Z,47.80
2019-05-02T10:02:25.111Z,47.80
2019-05-02T10:03:31.894Z,47.20
2019-05-02T10:04:42.128Z,47.80
2019-05-02T10:05:48.304Z,47.60
2019-05-02T10:06:55.533Z,47.50
2019-05-02T10:08:06.759Z,47.20
2019-05-02T10:09:12.182Z,47.40
2019-05-02T10:10:21.827Z,47.40
2019-05-02T10:11:29.297Z,47.30
2019-05-02T10:12:36.527Z,47.20
2019-05-02T10:13:43.749Z,47.30
2019-05-02T10:14:52.707Z,47.10
2019-05-02T10:16:01.941Z,46.70
2019-05-02T10:17:09.129Z,46.70
2019-05-02T10:18:19.745Z,46.50
2019-05-02T10:19:26.168Z,46.30
2019-05-02T10:20:36.285Z,45.80
2019-05-02T10:21:47.061Z,45.90
2019-05-02T10:22:52.980Z,46.00
2019-05-02T10:24:01.683Z,45.60
2019-05-02T10:25:11.764Z,45.60
2019-05-02T10:26:20.041Z,45.60
2019-05-02T10:27:28.178Z,45.40
2019-05-02T10:28:35.385Z,44.90
2019-05-02T10:29:42.611Z,44.90
2019-05-02T10:30:52.539Z,44.60
2019-05-02T10:31:59.137Z,44.50
2019-05-02T10:33:06.523Z,44.70
2019-05-02T10:34:17.619Z,44.90
2019-05-02T10:35:28.056Z,45.10
2019-05-02T10:36:35.672Z,45.10
2019-05-02T10:37:43.128Z,45.00
2019-05-02T10:38:54.805Z,44.80
2019-05-02T10:39:59.335Z,45.10
2019-05-02T10:41:06.980Z,45.20
2019-05-02T10:42:14.188Z,44.80
2019-05-02T10:43:22.251Z,44.30
2019-05-02T10:44:34.859Z,44.10
2019-05-02T10:45:39.991Z,43.80
2019-05-02T10:46:58.425Z,44.00
2019-05-02T10:48:05.664Z,43.90
2019-05-02T10:49:22.630Z,44.00
2019-05-02T10:50:34.162Z,43.60
2019-05-02T10:51:49.005Z,43.60
2019-05-02T10:52:50.307Z,42.80
2019-05-02T10:53:57.532Z,42.00
2019-05-02T10:55:05.330Z,41.90
2019-05-02T10:56:12.614Z,42.10
2019-05-02T10:57:21.863Z,41.40
2019-05-02T10:58:34.153Z,40.60
2019-05-02T10:59:37.666Z,40.90
2019-05-02T11:00:45.584Z,41.10
2019-05-02T11:02:17.998Z,40.90
2019-05-02T11:03:38.124Z,41.40
2019-05-02T11:04:48.172Z,41.70
2019-05-02T11:06:03.656Z,42.20
2019-05-02T11:07:07.270Z,41.40
2019-05-02T11:08:14.487Z,41.70
2019-05-02T11:09:26.074Z,41.50
2019-05-02T11:10:32.339Z,41.20
2019-05-02T11:11:42.492Z,41.50
2019-05-02T11:12:59.532Z,41.70
2019-05-02T11:14:16.228Z,41.60
2019-05-02T11:15:41.862Z,41.40
2019-05-02T11:17:08.682Z,40.40
2019-05-02T11:18:17.268Z,41.00
2019-05-02T11:19:33.451Z,40.90
2019-05-02T11:20:42.069Z,40.60
2019-05-02T11:21:56.527Z,40.50
2019-05-02T11:22:58.368Z,40.20
2019-05-02T11:24:05.749Z,39.90
2019-05-02T11:25:13.200Z,40.40
2019-05-02T11:26:23.341Z,40.00
2019-05-02T11:27:29.301Z,39.40
2019-05-02T11:28:36.524Z,39.70
2019-05-02T11:29:43.750Z,39.90
2019-05-02T11:30:52.489Z,40.20
2019-05-02T11:31:59.791Z,40.10
2019-05-02T11:33:07.006Z,39.10
2019-05-02T11:34:14.393Z,39.20
2019-05-02T11:35:22.373Z,39.20
2019-05-02T11:36:29.987Z,39.70
2019-05-02T11:37:37.243Z,39.70
2019-05-02T11:38:48.107Z,39.70
2019-05-02T11:39:59.231Z,40.00
2019-05-02T11:41:02.845Z,40.50
2019-05-02T11:42:10.169Z,40.60
2019-05-02T11:43:17.392Z,40.60
2019-05-02T11:44:25.697Z,40.00
2019-05-02T11:45:32.938Z,39.90
2019-05-02T11:46:43.083Z,39.40
2019-05-02T11:47:49.085Z,39.00
2019-05-02T11:48:58.641Z,38.80
2019-05-02T11:50:06.209Z,39.20
2019-05-02T11:51:16.435Z,39.40
2019-05-02T11:52:22.706Z,39.00
2019-05-02T11:53:30.001Z,38.50
2019-05-02T11:54:39.190Z,37.80
2019-05-02T11:55:46.150Z,37.80
2019-05-02T11:56:53.740Z,38.30
2019-05-02T11:58:07.919Z,38.70
2019-05-02T11:59:14.207Z,38.60
2019-05-02T12:00:19.044Z,39.20
2019-05-02T12:01:35.711Z,39.30
2019-05-02T12:03:02.235Z,39.70
2019-05-02T12:04:12.977Z,40.20
2019-05-02T12:05:22.099Z,39.50
2019-05-02T12:06:29.107Z,39.00
2019-05-02T12:07:36.336Z,38.10
2019-05-02T12:08:48.127Z,38.30
2019-05-02T12:09:57.153Z,38.30
2019-05-02T12:11:03.743Z,38.20
2019-05-02T12:12:12.222Z,38.20
2019-05-02T12:13:19.379Z,38.70
2019-05-02T12:14:27.453Z,38.80
2019-05-02T12:15:35.530Z,38.40
2019-05-02T12:16:43.147Z,38.60
2019-05-02T12:17:51.687Z,38.90
2019-05-02T12:19:09.363Z,38.50
2019-05-02T12:20:08.136Z,38.20
2019-05-02T12:21:15.572Z,37.60
2019-05-02T12:22:22.800Z,37.70
2019-05-02T12:23:31.953Z,37.50
2019-05-02T12:24:40.787Z,37.80
2019-05-02T12:25:47.883Z,37.50
2019-05-02T12:26:56.263Z,37.70
2019-05-02T12:28:03.508Z,37.00
2019-05-02T12:29:12.191Z,37.60
2019-05-02T12:30:19.727Z,38.30
2019-05-02T12:31:32.398Z,38.10
2019-05-02T12:32:40.084Z,38.00
2019-05-02T12:33:47.300Z,37.30
2019-05-02T12:34:54.525Z,37.50
2019-05-02T12:36:02.613Z,37.60
2019-05-02T12:37:09.957Z,37.80
2019-05-02T12:38:17.195Z,37.80
2019-05-02T12:39:24.420Z,37.50
2019-05-02T12:40:32.580Z,37.00
2019-05-02T12:41:41.974Z,37.00
2019-05-02T12:42:50.045Z,37.00
2019-05-02T12:43:57.300Z,37.00
2019-05-02T12:45:04.589Z,36.60
2019-05-02T12:46:11.888Z,36.30
2019-05-02T12:47:19.101Z,36.20
2019-05-02T12:48:26.314Z,36.10
2019-05-02T12:49:33.550Z,36.20
2019-05-02T12:50:41.817Z,37.00
2019-05-02T12:51:49.202Z,36.30
2019-05-02T12:52:56.452Z,36.00
2019-05-02T12:54:03.656Z,36.20
2019-05-02T12:55:12.798Z,36.30
2019-05-02T12:56:19.983Z,36.50
2019-05-02T12:57:27.207Z,36.80
2019-05-02T12:58:34.421Z,37.10
2019-05-02T12:59:41.756Z,36.70
2019-05-02T13:00:49.066Z,37.10
2019-05-02T13:01:57.933Z,36.50
2019-05-02T13:03:13.363Z,36.70
2019-05-02T13:04:22.771Z,36.90
2019-05-02T13:05:29.490Z,37.20
2019-05-02T13:06:37.389Z,37.30
2019-05-02T13:07:50.730Z,37.40
2019-05-02T13:08:53.704Z,37.20
2019-05-02T13:10:02.730Z,36.80
2019-05-02T13:11:18.526Z,36.40
2019-05-02T13:12:29.248Z,36.00
2019-05-02T13:13:36.651Z,36.20
2019-05-02T13:14:43.861Z,36.30
2019-05-02T13:15:51.912Z,36.20
2019-05-02T13:17:03.874Z,36.20
2019-05-02T13:18:08.918Z,36.20
2019-05-02T13:19:16.740Z,36.50
2019-05-02T13:20:29.430Z,36.00
2019-05-02T13:21:58.029Z,36.10
2019-05-02T13:23:27.269Z,36.10
2019-05-02T13:24:46.937Z,36.30
2019-05-02T13:25:53.510Z,36.30
2019-05-02T13:27:01.782Z,36.10
2019-05-02T13:28:09.739Z,36.50
2019-05-02T13:29:16.943Z,36.80
2019-05-02T13:30:46.733Z,36.10
2019-05-02T13:32:16.894Z,36.50
2019-05-02T13:33:34.366Z,35.90
2019-05-02T13:34:48.631Z,36.00
2019-05-02T13:35:57.885Z,35.70
2019-05-02T13:37:06.334Z,35.60
2019-05-02T13:38:14.541Z,35.80
2019-05-02T13:39:30.245Z,36.20
2019-05-02T13:40:44.584Z,36.40
2019-05-02T13:41:52.289Z,36.30
2019-05-02T13:43:01.719Z,36.20
2019-05-02T13:44:10.233Z,36.20
2019-05-02T13:45:32.409Z,36.50
2019-05-02T13:46:41.851Z,36.80
2019-05-02T13:47:48.744Z,37.00
2019-05-02T13:48:55.984Z,37.50
2019-05-02T13:50:04.057Z,37.20
2019-05-02T13:51:12.027Z,37.30
2019-05-02T13:52:19.239Z,37.10
2019-05-02T13:53:26.478Z,37.00
2019-05-02T13:54:34.423Z,37.10
2019-05-02T13:55:46.738Z,37.30
2019-05-02T13:56:53.947Z,37.20
2019-05-02T13:58:02.287Z,37.30
2019-05-02T13:59:11.141Z,37.00
2019-05-02T14:00:27.017Z,36.40
2019-05-02T14:01:34.228Z,36.50
2019-05-02T14:02:43.354Z,36.70
2019-05-02T14:03:53.664Z,36.80
2019-05-02T14:04:59.488Z,36.70
2019-05-02T14:06:07.253Z,36.70
2019-05-02T14:07:17.455Z,36.30
2019-05-02T14:08:36.894Z,36.10
2019-05-02T14:09:58.240Z,35.70
2019-05-02T14:11:19.185Z,35.60
2019-05-02T14:12:57.677Z,35.70
2019-05-02T14:14:05.126Z,35.90
2019-05-02T14:15:13.732Z,36.30
2019-05-02T14:16:22.151Z,36.70
2019-05-02T14:17:29.519Z,36.60
2019-05-02T14:18:36.719Z,36.60
2019-05-02T14:19:44.754Z,36.80
2019-05-02T14:20:52.689Z,36.90
2019-05-02T14:22:00.076Z,36.60
2019-05-02T14:23:07.496Z,36.50
2019-05-02T14:24:14.829Z,36.60
2019-05-02T14:25:22.518Z,36.60
2019-05-02T14:26:30.713Z,36.70
2019-05-02T14:27:38.756Z,36.80
2019-05-02T14:28:45.953Z,36.50
2019-05-02T14:29:53.164Z,36.50
2019-05-02T14:31:02.224Z,36.20
2019-05-02T14:32:20.328Z,36.20
2019-05-02T14:33:23.343Z,35.90
2019-05-02T14:34:49.627Z,35.50
2019-05-02T14:35:56.839Z,35.20
2019-05-02T14:37:04.153Z,35.20
2019-05-02T14:38:15.158Z,35.10
2019-05-02T14:39:22.714Z,35.10
2019-05-02T14:40:33.122Z,35.50
2019-05-02T14:41:43.942Z,35.70
2019-05-02T14:42:49.329Z,35.90
2019-05-02T14:43:56.965Z,36.80
2019-05-02T14:45:13.151Z,36.30
2019-05-02T14:46:13.590Z,36.40
2019-05-02T14:47:22.395Z,36.50
2019-05-02T14:48:41.018Z,36.60
2019-05-02T14:49:45.053Z,36.60
2019-05-02T14:50:52.348Z,35.90
2019-05-02T14:52:05.146Z,35.50
2019-05-02T14:53:11.932Z,35.40